Time;durP1;ratioP1;P1;durP2;ratioP2;P2;SDS_P1;SDS_P2;PMS_P1;PMS_P2;Temp;Humidity;BMP_temperature;BMP_pressure;BME280_temperature;BME280_humidity;BME280_pressure;Samples;Min_cycle;Max_cycle;Signal;HPM_P1;HPM_P2
2021/10/19 00:00:03;;;;;;;1090.28;999.90;;;;;;;11.70;62.92;101763.97;687777;28;24182;-68
2021/10/19 00:00:34;;;;;;;1093.63;999.90;;;;;;;11.73;62.92;101754.69;684842;28;136043;-68
2021/10/19 00:00:55;;;;;;;1093.95;999.90;;;;;;;11.74;62.54;101753.72;687177;28;44399;-68
2021/10/19 00:01:16;;;;;;;1091.30;999.90;;;;;;;11.77;62.68;101752.53;688487;28;22343;-68
2021/10/19 00:01:37;;;;;;;1092.47;999.90;;;;;;;11.76;62.46;101750.84;687679;28;44403;-68
2021/10/19 00:01:59;;;;;;;1087.53;999.90;;;;;;;11.77;62.69;101756.09;687160;28;46489;-68
2021/10/19 00:02:20;;;;;;;1087.65;999.90;;;;;;;11.77;62.35;101761.50;687824;28;46449;-68
2021/10/19 00:02:42;;;;;;;1086.30;999.90;;;;;;;11.77;62.40;101753.38;686440;28;46470;-68
2021/10/19 00:03:03;;;;;;;1085.55;999.90;;;;;;;11.77;62.33;101745.25;687444;28;45359;-68
2021/10/19 00:03:25;;;;;;;1091.60;999.90;;;;;;;11.79;62.63;101751.34;688826;28;22389;-69
2021/10/19 00:03:46;;;;;;;1086.90;999.90;;;;;;;11.77;62.62;101745.25;687093;28;46095;-69
2021/10/19 00:04:07;;;;;;;1095.45;999.90;;;;;;;11.81;62.24;101752.03;688510;28;22403;-68
2021/10/19 00:04:28;;;;;;;1100.63;999.90;;;;;;;11.81;62.55;101752.03;688250;28;22418;-69
2021/10/19 00:04:50;;;;;;;1085.60;999.90;;;;;;;11.83;62.26;101746.47;688710;28;21356;-68
2021/10/19 00:05:13;;;;;;;1089.55;999.90;;;;;;;11.84;62.41;101748.16;687051;28;46300;-68
2021/10/19 00:05:34;;;;;;;1089.60;999.90;;;;;;;11.87;62.52;101753.25;687112;28;67461;-68
2021/10/19 00:05:56;;;;;;;1096.07;999.90;;;;;;;11.87;62.21;101753.25;688036;28;23411;-68
2021/10/19 00:06:17;;;;;;;1090.63;999.90;;;;;;;11.87;62.31;101753.25;687628;28;46349;-68
2021/10/19 00:06:38;;;;;;;1087.97;999.90;;;;;;;11.87;62.18;101745.16;688288;28;21518;-69
2021/10/19 00:07:00;;;;;;;1074.85;999.90;;;;;;;11.84;62.47;101749.00;688153;28;22224;-69
2021/10/19 00:07:22;;;;;;;1084.50;999.90;;;;;;;11.85;62.08;101755.28;687960;28;38155;-68
2021/10/19 00:07:43;;;;;;;1088.20;999.90;;;;;;;11.83;62.03;101755.44;687368;28;44504;-68
2021/10/19 00:08:05;;;;;;;1084.72;999.90;;;;;;;11.82;62.13;101747.50;687631;28;44217;-68
2021/10/19 00:08:27;;;;;;;1071.70;999.90;;;;;;;11.83;62.36;101749.16;687766;28;44360;-68
2021/10/19 00:08:49;;;;;;;1078.10;999.90;;;;;;;11.83;62.22;101751.88;687179;28;46159;-68
2021/10/19 00:09:16;;;;;;;1070.97;999.90;;;;;;;11.81;62.12;101756.63;686386;28;83086;-68
2021/10/19 00:09:37;;;;;;;1078.07;999.90;;;;;;;11.80;62.28;101755.78;687702;28;46363;-68
2021/10/19 00:09:59;;;;;;;1042.22;977.65;;;;;;;11.79;62.46;101759.47;688257;28;21082;-68
2021/10/19 00:10:20;;;;;;;1012.92;953.13;;;;;;;11.79;62.48;101755.94;687348;28;47314;-68
2021/10/19 00:10:41;;;;;;;1033.07;971.58;;;;;;;11.77;62.40;101757.94;688456;28;21520;-68
2021/10/19 00:11:03;;;;;;;974.90;917.80;;;;;;;11.76;62.34;101764.38;688134;28;21661;-68
2021/10/19 00:11:24;;;;;;;897.03;844.88;;;;;;;11.75;62.42;101765.38;688546;28;22389;-68
2021/10/19 00:11:46;;;;;;;875.63;825.03;;;;;;;11.75;62.54;101763.50;688243;28;21495;-68
2021/10/19 00:12:07;;;;;;;883.10;831.83;;;;;;;11.73;62.69;101768.22;687445;28;46148;-68
2021/10/19 00:12:28;;;;;;;873.15;822.50;;;;;;;11.73;62.56;101773.66;687888;28;44322;-68
2021/10/19 00:12:49;;;;;;;899.40;847.17;;;;;;;11.72;62.70;101771.94;688510;28;23534;-68
2021/10/19 00:13:10;;;;;;;895.72;843.75;;;;;;;11.70;62.74;101780.22;688639;28;21329;-68
2021/10/19 00:13:32;;;;;;;883.90;832.63;;;;;;;11.68;62.52;101778.69;688016;28;21541;-69
2021/10/19 00:13:53;;;;;;;892.60;840.65;;;;;;;11.71;62.81;101772.97;687342;28;46315;-69
2021/10/19 00:14:14;;;;;;;885.65;834.08;;;;;;;11.70;62.69;101780.22;688518;28;22259;-69
2021/10/19 00:14:36;;;;;;;894.33;842.33;;;;;;;11.70;62.45;101774.81;688133;28;21404;-69
2021/10/19 00:14:58;;;;;;;890.60;838.85;;;;;;;11.71;62.57;101778.38;688293;28;23496;-69
2021/10/19 00:15:19;;;;;;;914.65;861.40;;;;;;;11.70;62.79;101782.94;687145;28;46326;-69
2021/10/19 00:15:40;;;;;;;908.13;855.38;;;;;;;11.69;62.79;101783.94;688256;28;22418;-69
2021/10/19 00:16:01;;;;;;;908.17;855.43;;;;;;;11.67;62.74;101771.56;688040;28;21405;-69
2021/10/19 00:16:23;;;;;;;922.83;869.07;;;;;;;11.68;62.66;101776.81;687683;28;46265;-69
2021/10/19 00:16:44;;;;;;;926.72;872.78;;;;;;;11.69;62.73;101780.38;687307;28;44398;-69
2021/10/19 00:17:05;;;;;;;941.45;886.53;;;;;;;11.67;62.70;101785.94;687389;28;46368;-69
2021/10/19 00:17:26;;;;;;;918.42;865.00;;;;;;;11.67;62.70;101779.69;688603;28;22400;-69
2021/10/19 00:17:48;;;;;;;914.25;860.90;;;;;;;11.67;62.87;101783.25;688156;28;21554;-68
2021/10/19 00:18:09;;;;;;;917.63;864.08;;;;;;;11.67;62.79;101785.94;687567;28;44247;-68
2021/10/19 00:18:30;;;;;;;902.83;850.10;;;;;;;11.66;63.13;101775.28;688131;28;23812;-68
2021/10/19 00:18:52;;;;;;;911.70;858.60;;;;;;;11.66;62.99;101786.09;687714;28;22117;-68
2021/10/19 00:19:14;;;;;;;906.22;853.58;;;;;;;11.66;62.79;101784.28;688655;28;21513;-68
2021/10/19 00:19:36;;;;;;;923.13;869.33;;;;;;;11.64;62.76;101780.00;687356;28;46313;-68
2021/10/19 00:19:57;;;;;;;917.72;864.17;;;;;;;11.64;63.00;101780.00;687462;28;44443;-68
2021/10/19 00:20:18;;;;;;;938.78;883.95;;;;;;;11.65;62.87;101777.16;687886;28;23519;-68
2021/10/19 00:20:39;;;;;;;948.43;893.10;;;;;;;11.66;63.06;101772.56;687850;28;45295;-68
2021/10/19 00:21:01;;;;;;;959.50;903.47;;;;;;;11.65;63.22;101768.19;687551;28;46358;-68
2021/10/19 00:21:23;;;;;;;979.92;922.53;;;;;;;11.67;63.06;101777.00;687211;28;69778;-68
2021/10/19 00:21:44;;;;;;;979.67;922.28;;;;;;;11.66;62.99;101775.28;688219;28;21474;-69
2021/10/19 00:22:05;;;;;;;1003.13;944.10;;;;;;;11.66;62.95;101778.00;688146;28;24413;-69
2021/10/19 00:22:26;;;;;;;1033.47;972.42;;;;;;;11.65;62.95;101773.59;688523;28;23283;-68
2021/10/19 00:22:48;;;;;;;1063.72;999.50;;;;;;;11.64;63.10;101775.44;688567;28;22236;-68
2021/10/19 00:23:10;;;;;;;1082.18;999.90;;;;;;;11.65;63.27;101784.44;687457;28;46286;-67
2021/10/19 00:23:32;;;;;;;1086.35;999.90;;;;;;;11.63;63.16;101775.59;687524;28;46416;-67
2021/10/19 00:23:53;;;;;;;1100.22;999.90;;;;;;;11.58;63.06;101767.94;687302;28;44150;-67
2021/10/19 00:24:14;;;;;;;1089.43;999.90;;;;;;;11.62;63.22;101772.06;688610;28;22404;-67
2021/10/19 00:24:36;;;;;;;1083.70;999.90;;;;;;;11.62;63.18;101769.34;688392;28;22403;-67
2021/10/19 00:24:57;;;;;;;1112.93;999.90;;;;;;;11.61;63.11;101770.34;687015;28;47318;-67
2021/10/19 00:25:18;;;;;;;1096.25;999.90;;;;;;;11.62;63.27;101768.50;687864;28;22372;-67
2021/10/19 00:25:39;;;;;;;1092.00;999.90;;;;;;;11.61;63.37;101767.63;692087;28;21901;-67
2021/10/19 00:26:01;;;;;;;1089.55;999.90;;;;;;;11.60;63.25;101771.38;691463;28;22365;-67
2021/10/19 00:26:22;;;;;;;1091.40;999.90;;;;;;;11.59;63.40;101771.53;690140;28;46272;-67
2021/10/19 00:26:43;;;;;;;1094.03;999.90;;;;;;;11.58;63.32;101767.13;690650;28;23370;-68
2021/10/19 00:27:06;;;;;;;1092.20;999.90;;;;;;;11.57;63.06;101760.88;690866;28;22420;-67
2021/10/19 00:27:27;;;;;;;1023.35;960.60;;;;;;;11.58;63.43;101765.25;688239;28;69456;-67
2021/10/19 00:27:50;;;;;;;1087.38;999.90;;;;;;;11.58;63.27;101765.25;682723;28;90284;-67
2021/10/19 00:28:11;;;;;;;1089.80;999.90;;;;;;;11.57;63.09;101766.28;686075;28;23510;-67
2021/10/19 00:28:33;;;;;;;1094.57;999.90;;;;;;;11.58;63.16;101767.13;685422;28;22398;-68
2021/10/19 00:28:55;;;;;;;1090.45;999.90;;;;;;;11.56;63.54;101755.63;684148;28;69297;-68
2021/10/19 00:29:16;;;;;;;1093.35;999.90;;;;;;;11.54;63.39;101763.88;685722;28;21379;-68
2021/10/19 00:29:38;;;;;;;1099.97;999.90;;;;;;;11.54;63.45;101769.28;685650;28;22289;-68
2021/10/19 00:30:00;;;;;;;1100.35;999.90;;;;;;;11.54;63.49;101770.13;686019;28;23431;-67
2021/10/19 00:30:21;;;;;;;1089.05;999.90;;;;;;;11.52;63.29;101758.63;686317;28;69736;-67
2021/10/19 00:30:42;;;;;;;1086.95;999.90;;;;;;;11.50;63.53;101755.25;688227;28;21509;-67
2021/10/19 00:31:03;;;;;;;1084.55;999.90;;;;;;;11.51;63.47;101765.03;687908;28;23770;-67
2021/10/19 00:31:25;;;;;;;1081.32;999.90;;;;;;;11.52;63.62;101766.75;688591;28;22389;-67
2021/10/19 00:31:46;;;;;;;1098.65;999.90;;;;;;;11.54;63.26;101764.72;687458;28;46308;-67
2021/10/19 00:32:07;;;;;;;1095.80;999.90;;;;;;;11.53;63.48;101767.59;688814;28;22411;-67
2021/10/19 00:32:28;;;;;;;1072.28;999.90;;;;;;;11.52;63.42;101766.75;687925;28;21490;-67
2021/10/19 00:32:51;;;;;;;1021.95;961.55;;;;;;;11.50;63.54;101765.19;688177;28;22387;-67
2021/10/19 00:33:12;;;;;;;1038.85;977.20;;;;;;;11.50;63.63;101768.78;687571;28;46313;-67
2021/10/19 00:33:33;;;;;;;1043.88;981.85;;;;;;;11.50;63.49;101770.59;687122;28;46528;-67
2021/10/19 00:33:55;;;;;;;1055.68;992.65;;;;;;;11.51;63.67;101767.75;689006;28;21515;-67
2021/10/19 00:34:16;;;;;;;1072.88;999.90;;;;;;;11.50;63.52;101771.47;687570;28;46311;-67
2021/10/19 00:34:37;;;;;;;1085.47;999.90;;;;;;;11.52;63.80;101772.16;688343;28;22235;-68
2021/10/19 00:34:58;;;;;;;1089.63;999.90;;;;;;;11.50;63.62;101767.91;687910;28;22442;-68
2021/10/19 00:35:20;;;;;;;1089.65;999.90;;;;;;;11.53;63.59;101773.84;688134;28;22409;-67
2021/10/19 00:35:41;;;;;;;1108.85;999.90;;;;;;;11.52;63.57;101764.03;687293;28;45328;-67
2021/10/19 00:36:02;;;;;;;1100.78;999.90;;;;;;;11.54;63.43;101764.72;687942;28;23482;-67
2021/10/19 00:36:24;;;;;;;1085.10;999.90;;;;;;;11.55;63.71;101765.56;688764;28;22364;-67
2021/10/19 00:36:45;;;;;;;1086.80;999.90;;;;;;;11.55;63.70;101765.56;688080;28;21127;-67
2021/10/19 00:37:07;;;;;;;1093.85;999.90;;;;;;;11.53;63.75;101754.91;688769;28;1759;-67
2021/10/19 00:37:28;;;;;;;1099.25;999.90;;;;;;;11.52;63.54;101755.09;687278;28;46393;-67
2021/10/19 00:37:49;;;;;;;1099.78;999.90;;;;;;;11.54;63.72;101755.78;687638;28;22409;-67
2021/10/19 00:38:13;;;;;;;1105.30;999.90;;;;;;;11.48;63.64;101754.53;688239;28;21515;-67
2021/10/19 00:38:37;;;;;;;1096.70;999.90;;;;;;;11.52;63.64;101755.94;685028;28;93521;-67
2021/10/19 00:38:58;;;;;;;1094.30;999.90;;;;;;;11.53;63.45;101754.91;687834;28;22405;-67
2021/10/19 00:39:19;;;;;;;1093.53;999.90;;;;;;;11.53;63.78;101754.06;688780;28;21254;-67
2021/10/19 00:39:41;;;;;;;1096.63;999.90;;;;;;;11.54;63.54;101759.31;687402;28;46390;-67
2021/10/19 00:40:03;;;;;;;1101.20;999.90;;;;;;;11.50;63.89;101754.38;686992;28;45333;-67
2021/10/19 00:40:25;;;;;;;1110.03;999.90;;;;;;;11.54;63.79;101763.88;686788;28;67617;-67
2021/10/19 00:40:47;;;;;;;1124.10;999.90;;;;;;;11.52;63.66;101764.03;687880;28;22562;-67
2021/10/19 00:41:08;;;;;;;1093.75;999.90;;;;;;;11.54;63.61;101758.47;687134;28;47505;-67
2021/10/19 00:41:29;;;;;;;1092.10;999.90;;;;;;;11.54;63.74;101764.72;688636;28;23420;-67
2021/10/19 00:41:50;;;;;;;1089.35;999.90;;;;;;;11.54;63.71;101756.59;688241;28;21571;-67
2021/10/19 00:42:12;;;;;;;1098.15;999.90;;;;;;;11.54;63.77;101758.47;688085;28;21564;-67
2021/10/19 00:42:34;;;;;;;1104.57;999.90;;;;;;;11.53;63.52;101749.50;687537;28;46682;-67
2021/10/19 00:42:55;;;;;;;1091.35;999.90;;;;;;;11.51;63.43;101748.81;687508;28;44298;-67
2021/10/19 00:43:16;;;;;;;1012.13;949.63;;;;;;;11.54;63.39;101750.34;688661;28;21545;-67
2021/10/19 00:43:39;;;;;;;965.53;909.17;;;;;;;11.51;63.73;101748.81;688529;28;22236;-67
2021/10/19 00:44:00;;;;;;;1018.42;958.15;;;;;;;11.48;63.67;101740.16;687023;28;67288;-67
2021/10/19 00:44:21;;;;;;;1083.93;999.90;;;;;;;11.50;63.66;101744.44;688616;28;22388;-67
2021/10/19 00:44:43;;;;;;;1090.57;999.90;;;;;;;11.48;63.57;101748.28;688077;28;23320;-67
2021/10/19 00:45:05;;;;;;;1088.15;999.90;;;;;;;11.48;63.92;101743.72;687151;28;44361;-67
2021/10/19 00:45:27;;;;;;;1098.10;999.90;;;;;;;11.48;63.86;101748.28;687549;28;46462;-67
2021/10/19 00:45:49;;;;;;;1104.07;999.90;;;;;;;11.47;63.93;101750.16;687323;28;45246;-67
2021/10/19 00:46:14;;;;;;;1095.50;999.90;;;;;;;11.47;63.92;101744.75;687844;28;45237;-67
2021/10/19 00:46:35;;;;;;;1099.78;999.90;;;;;;;11.45;63.78;101745.91;685628;28;114946;-68
2021/10/19 00:46:58;;;;;;;1089.22;999.90;;;;;;;11.44;63.74;101741.47;688280;28;22375;-68
2021/10/19 00:47:20;;;;;;;1063.75;999.72;;;;;;;11.45;63.78;101752.16;686867;28;70961;-68
2021/10/19 00:47:46;;;;;;;1074.15;999.90;;;;;;;11.47;63.86;101752.00;687225;28;44377;-68
2021/10/19 00:48:10;;;;;;;1069.03;999.90;;;;;;;11.46;63.92;101756.56;683612;28;159199;-67
2021/10/19 00:48:32;;;;;;;1080.68;999.90;;;;;;;11.46;64.01;101748.44;685427;28;114775;-67
2021/10/19 00:48:53;;;;;;;1085.93;999.90;;;;;;;11.44;63.80;101746.88;687491;28;43942;-67
2021/10/19 00:49:15;;;;;;;1087.53;999.90;;;;;;;11.46;63.71;101751.16;688636;28;22388;-68
2021/10/19 00:49:36;;;;;;;1092.45;999.90;;;;;;;11.45;64.00;101749.44;688133;28;21331;-68
2021/10/19 00:49:58;;;;;;;1094.43;999.90;;;;;;;11.44;63.94;101752.31;687132;28;46359;-67
2021/10/19 00:50:19;;;;;;;1076.97;999.90;;;;;;;11.44;63.90;101746.88;687703;28;46330;-67
2021/10/19 00:50:40;;;;;;;1074.20;999.90;;;;;;;11.42;63.96;101747.06;688711;28;22405;-67
2021/10/19 00:51:01;;;;;;;1062.38;998.03;;;;;;;11.42;64.08;101752.47;687756;28;23426;-67
2021/10/19 00:51:23;;;;;;;1039.93;978.22;;;;;;;11.40;64.20;101746.38;688612;28;22969;-67
2021/10/19 00:51:45;;;;;;;1071.57;999.90;;;;;;;11.43;64.14;101746.06;687572;28;46320;-67
2021/10/19 00:52:06;;;;;;;1065.57;999.90;;;;;;;11.43;63.93;101751.47;687199;28;70251;-67
2021/10/19 00:52:27;;;;;;;1082.20;999.90;;;;;;;11.41;63.94;101741.78;687319;28;45363;-67
2021/10/19 00:52:48;;;;;;;1091.63;999.90;;;;;;;11.43;64.18;101746.06;688517;28;21523;-67
2021/10/19 00:53:11;;;;;;;1081.50;999.90;;;;;;;11.43;64.15;101746.06;687897;28;23418;-67
2021/10/19 00:53:33;;;;;;;1087.55;999.90;;;;;;;11.43;64.22;101747.91;686947;28;69365;-67
2021/10/19 00:53:54;;;;;;;1104.10;999.90;;;;;;;11.41;64.19;101748.06;692429;28;46118;-67
2021/10/19 00:54:17;;;;;;;1105.72;999.90;;;;;;;11.40;64.09;101748.22;693458;28;23423;-67
2021/10/19 00:54:38;;;;;;;1096.47;999.90;;;;;;;11.40;64.20;101743.66;691361;28;69207;-67
2021/10/19 00:55:03;;;;;;;1090.75;999.90;;;;;;;11.39;64.08;101744.66;691837;28;23290;-67
2021/10/19 00:55:28;;;;;;;1089.85;999.90;;;;;;;11.45;63.93;101749.44;689753;28;60177;-67
2021/10/19 00:55:50;;;;;;;1079.80;999.90;;;;;;;11.46;64.21;101744.91;686869;28;44559;-67
2021/10/19 00:56:11;;;;;;;1054.65;991.67;;;;;;;11.46;63.91;101747.59;688022;28;23290;-67
2021/10/19 00:56:36;;;;;;;1081.18;999.90;;;;;;;11.47;64.11;101735.75;687390;28;46389;-67
2021/10/19 00:56:58;;;;;;;1095.93;999.90;;;;;;;11.47;63.87;101733.91;685352;28;90786;-67
2021/10/19 00:57:19;;;;;;;1086.32;999.90;;;;;;;11.47;64.19;101736.63;687818;28;45291;-67
2021/10/19 00:57:40;;;;;;;1093.90;999.90;;;;;;;11.48;63.78;101732.91;687020;28;45266;-67
2021/10/19 00:58:02;;;;;;;1096.75;999.90;;;;;;;11.50;63.97;101721.91;688258;28;21513;-67
2021/10/19 00:58:24;;;;;;;1096.03;999.90;;;;;;;11.53;63.87;101719.72;687898;28;45222;-67
2021/10/19 00:58:45;;;;;;;1089.88;999.90;;;;;;;11.53;63.87;101713.47;687173;28;43334;-68
2021/10/19 00:59:07;;;;;;;1068.13;999.90;;;;;;;11.54;63.97;101724.13;688530;28;22281;-67
2021/10/19 00:59:32;;;;;;;1076.75;999.90;;;;;;;11.54;63.99;101720.59;687723;28;15232;-67
2021/10/19 00:59:53;;;;;;;1085.63;999.90;;;;;;;11.52;63.82;101718.06;686112;28;69393;-67
2021/10/19 01:00:16;;;;;;;1086.88;999.90;;;;;;;11.52;63.71;101714.50;687730;28;44300;-67
2021/10/19 01:00:37;;;;;;;1087.68;999.90;;;;;;;11.52;63.67;101717.22;687340;28;44355;-67
2021/10/19 01:00:58;;;;;;;1076.43;999.90;;;;;;;11.51;63.99;101716.34;688111;28;48065;-67
2021/10/19 01:01:20;;;;;;;1079.90;999.90;;;;;;;11.49;63.85;101712.13;688262;28;22988;-67
2021/10/19 01:01:42;;;;;;;1090.53;999.90;;;;;;;11.49;64.05;101709.41;688143;28;21521;-67
2021/10/19 01:02:03;;;;;;;1098.13;999.90;;;;;;;11.47;64.09;101709.56;687418;28;45115;-67
2021/10/19 01:02:24;;;;;;;1104.22;999.90;;;;;;;11.47;63.83;101719.53;688249;28;46306;-67
2021/10/19 01:02:46;;;;;;;1091.75;999.90;;;;;;;11.47;64.04;101723.09;687832;28;21328;-67
2021/10/19 01:03:08;;;;;;;1074.88;999.90;;;;;;;11.47;64.18;101719.53;688325;28;23487;-67
2021/10/19 01:03:29;;;;;;;1078.80;999.90;;;;;;;11.46;64.10;101726.81;687653;28;45282;-67
2021/10/19 01:03:50;;;;;;;1068.95;999.90;;;;;;;11.46;64.22;101723.25;688214;28;22338;-67
2021/10/19 01:04:11;;;;;;;1062.00;998.38;;;;;;;11.45;64.25;101716.13;688439;28;23469;-67
2021/10/19 01:04:32;;;;;;;1061.00;997.70;;;;;;;11.43;64.04;101721.72;687971;28;23543;-67
2021/10/19 01:04:54;;;;;;;1059.97;996.63;;;;;;;11.43;64.09;101720.88;687446;28;47160;-67
2021/10/19 01:05:15;;;;;;;1076.60;999.90;;;;;;;11.40;63.99;101722.03;687078;28;68537;-67
2021/10/19 01:05:36;;;;;;;1079.67;999.90;;;;;;;11.42;63.88;101725.41;687403;28;47049;-67
2021/10/19 01:05:58;;;;;;;1087.25;999.90;;;;;;;11.42;64.16;101716.47;687108;28;46989;-67
2021/10/19 01:06:20;;;;;;;1087.28;999.90;;;;;;;11.40;63.98;101724.72;688830;28;21469;-67
2021/10/19 01:06:42;;;;;;;1095.53;999.90;;;;;;;11.40;64.43;101721.19;687341;28;67492;-67
2021/10/19 01:07:03;;;;;;;1093.00;999.90;;;;;;;11.39;64.33;101733.00;688344;28;23556;-67
2021/10/19 01:07:24;;;;;;;1091.57;999.90;;;;;;;11.39;64.13;101727.59;688734;28;43583;-67
2021/10/19 01:07:47;;;;;;;1089.73;999.90;;;;;;;11.36;63.98;101728.75;687338;28;45387;-68
2021/10/19 01:08:11;;;;;;;1102.47;999.90;;;;;;;11.40;64.17;101734.72;686617;28;67430;-67
2021/10/19 01:08:32;;;;;;;1080.07;999.90;;;;;;;11.39;64.10;101728.44;686273;28;92553;-67
2021/10/19 01:08:53;;;;;;;1050.53;986.38;;;;;;;11.37;64.10;101733.16;688346;28;22334;-67
2021/10/19 01:09:15;;;;;;;1084.72;999.90;;;;;;;11.36;64.38;101737.72;688815;28;23447;-67
2021/10/19 01:09:37;;;;;;;1091.53;999.90;;;;;;;11.36;64.40;101739.56;686777;28;46376;-67
2021/10/19 01:09:58;;;;;;;1088.95;999.90;;;;;;;11.35;64.29;101729.78;686791;28;44391;-67
2021/10/19 01:10:19;;;;;;;1089.18;999.90;;;;;;;11.35;64.25;101732.47;688692;28;22460;-67
2021/10/19 01:10:44;;;;;;;1096.45;999.90;;;;;;;11.36;64.30;101734.16;688231;28;22460;-67
2021/10/19 01:11:06;;;;;;;1039.55;975.10;;;;;;;11.36;64.36;101728.75;683997;28;135315;-67
2021/10/19 01:11:27;;;;;;;1065.70;999.33;;;;;;;11.36;64.18;101726.91;688709;28;23528;-67
2021/10/19 01:11:48;;;;;;;1091.15;999.90;;;;;;;11.35;64.42;101730.63;687166;28;46894;-67
2021/10/19 01:12:10;;;;;;;1081.00;999.90;;;;;;;11.36;64.27;101720.63;688107;28;22389;-67
2021/10/19 01:12:32;;;;;;;1081.13;999.90;;;;;;;11.35;64.36;101724.38;687536;28;46404;-67
2021/10/19 01:12:53;;;;;;;1083.88;999.90;;;;;;;11.37;64.20;101725.03;687015;28;46400;-67
2021/10/19 01:13:14;;;;;;;1087.20;999.90;;;;;;;11.38;64.15;101720.47;688469;28;22382;-67
2021/10/19 01:13:36;;;;;;;1088.15;999.90;;;;;;;11.38;64.26;101725.88;687701;28;22403;-67
2021/10/19 01:13:57;;;;;;;1091.63;999.90;;;;;;;11.37;64.23;101725.03;687425;28;45384;-67
2021/10/19 01:14:18;;;;;;;1093.22;999.90;;;;;;;11.37;64.43;101719.63;688656;28;24304;-67
2021/10/19 01:14:40;;;;;;;1085.65;999.90;;;;;;;11.34;64.27;101719.94;687998;28;22216;-67
2021/10/19 01:15:07;;;;;;;1092.97;999.90;;;;;;;11.33;64.59;101716.41;687895;28;21574;-67
2021/10/19 01:15:32;;;;;;;1093.82;999.90;;;;;;;11.31;64.31;101715.69;683286;28;160969;-67
2021/10/19 01:16:02;;;;;;;1093.40;999.90;;;;;;;11.28;64.58;101713.31;684126;28;137603;-67
2021/10/19 01:16:23;;;;;;;1088.45;999.90;;;;;;;11.30;64.76;101721.25;684908;28;137566;-67
2021/10/19 01:16:45;;;;;;;1096.43;999.90;;;;;;;11.30;64.54;101711.31;688435;28;21104;-67
2021/10/19 01:17:08;;;;;;;1107.55;999.90;;;;;;;11.31;64.45;101714.84;688240;28;22383;-67
2021/10/19 01:17:29;;;;;;;1111.97;999.90;;;;;;;11.31;64.59;101714.84;685865;28;93273;-67
2021/10/19 01:17:51;;;;;;;1088.78;999.90;;;;;;;11.29;64.52;101719.59;687312;28;22160;-68
2021/10/19 01:18:15;;;;;;;1084.72;999.90;;;;;;;11.30;64.65;101718.56;687635;28;46671;-67
2021/10/19 01:18:37;;;;;;;1088.95;999.90;;;;;;;11.28;64.85;101718.72;687537;28;91954;-67
2021/10/19 01:18:58;;;;;;;1094.40;999.90;;;;;;;11.29;64.60;101719.59;689921;28;45218;-67
2021/10/19 01:19:21;;;;;;;1103.47;999.90;;;;;;;11.29;64.63;101715.00;690653;28;22048;-67
2021/10/19 01:19:43;;;;;;;1111.00;999.90;;;;;;;11.27;64.87;101711.63;690010;28;46381;-67
2021/10/19 01:20:14;;;;;;;1087.40;999.90;;;;;;;11.28;64.83;101718.72;689567;28;46281;-67
2021/10/19 01:20:36;;;;;;;1094.28;999.90;;;;;;;11.27;64.88;101713.47;684620;28;137441;-67
2021/10/19 01:20:58;;;;;;;1099.53;999.90;;;;;;;11.27;64.55;101713.47;687785;28;21532;-67
2021/10/19 01:21:19;;;;;;;1098.10;999.90;;;;;;;11.27;64.72;101719.75;687381;28;44063;-67
2021/10/19 01:21:40;;;;;;;1093.25;999.90;;;;;;;11.25;64.71;101712.78;687973;28;20905;-67
2021/10/19 01:22:04;;;;;;;1099.78;999.90;;;;;;;11.25;64.59;101715.47;688543;28;22378;-67
2021/10/19 01:22:26;;;;;;;1099.70;999.90;;;;;;;11.22;64.87;101707.69;685978;28;93054;-67
2021/10/19 01:22:47;;;;;;;1104.25;999.90;;;;;;;11.22;64.72;101715.81;686982;28;46309;-67
2021/10/19 01:23:08;;;;;;;1091.82;999.90;;;;;;;11.20;64.74;101709.72;688154;28;22411;-67
2021/10/19 01:23:30;;;;;;;1096.13;999.90;;;;;;;11.22;65.03;101710.38;686740;28;44389;-67
2021/10/19 01:23:52;;;;;;;1106.43;999.90;;;;;;;11.20;65.13;101712.41;687146;28;45070;-67
2021/10/19 01:24:13;;;;;;;1097.55;999.90;;;;;;;11.21;65.13;101708.69;688254;28;22375;-67
2021/10/19 01:24:34;;;;;;;1073.32;999.90;;;;;;;11.22;65.00;101710.38;687884;28;21561;-67
2021/10/19 01:24:55;;;;;;;1003.20;944.10;;;;;;;11.23;65.22;101712.94;687517;28;22463;-67
2021/10/19 01:25:19;;;;;;;1005.90;946.70;;;;;;;11.22;65.05;101716.63;688544;28;23479;-67
2021/10/19 01:25:40;;;;;;;1062.75;999.08;;;;;;;11.24;64.75;101717.34;686651;28;92199;-67
2021/10/19 01:26:03;;;;;;;1077.95;999.90;;;;;;;11.24;65.06;101705.66;687779;28;22414;-67
2021/10/19 01:26:24;;;;;;;1102.50;999.90;;;;;;;11.21;65.04;101700.56;686966;28;69320;-68
2021/10/19 01:26:45;;;;;;;1118.70;999.90;;;;;;;11.24;65.00;101713.78;687296;28;44321;-67
2021/10/19 01:27:07;;;;;;;1090.57;999.90;;;;;;;11.22;65.05;101719.34;688071;28;23473;-67
2021/10/19 01:27:28;;;;;;;1093.78;999.90;;;;;;;11.18;64.85;101712.56;687645;28;46306;-67
2021/10/19 01:27:51;;;;;;;1097.82;999.90;;;;;;;11.22;64.89;101716.63;687383;28;23494;-67
2021/10/19 01:28:13;;;;;;;1103.10;999.90;;;;;;;11.21;64.81;101714.97;687441;28;45289;-67
2021/10/19 01:28:37;;;;;;;1111.88;999.90;;;;;;;11.21;64.83;101714.97;688250;28;13998;-67
2021/10/19 01:28:58;;;;;;;1100.68;999.90;;;;;;;11.19;65.20;101716.97;685756;28;90707;-67
2021/10/19 01:29:19;;;;;;;1094.57;999.90;;;;;;;11.21;64.93;101719.50;688537;28;23476;-68
2021/10/19 01:29:40;;;;;;;1105.53;999.90;;;;;;;11.21;64.97;101719.50;687993;28;22580;-67
2021/10/19 01:30:02;;;;;;;1088.05;999.90;;;;;;;11.20;64.93;101720.53;687729;28;23293;-67
2021/10/19 01:30:24;;;;;;;974.72;912.35;;;;;;;11.17;65.10;101714.44;687744;28;45296;-67
2021/10/19 01:30:47;;;;;;;733.60;692.42;;;;;;;11.16;65.24;101709.19;687265;28;45260;-67
2021/10/19 01:31:09;;;;;;;722.63;682.53;;;;;;;11.17;65.22;101717.13;686528;28;67496;-67
2021/10/19 01:31:30;;;;;;;709.05;670.50;;;;;;;11.17;65.25;101717.13;687884;28;46312;-67
2021/10/19 01:31:54;;;;;;;737.40;696.42;;;;;;;11.17;65.10;101714.44;688386;28;22356;-67
2021/10/19 01:32:15;;;;;;;722.90;683.00;;;;;;;11.16;65.05;101715.44;686049;28;91836;-67
2021/10/19 01:32:36;;;;;;;704.65;666.13;;;;;;;11.16;65.32;101714.59;687922;28;23467;-67
2021/10/19 01:32:58;;;;;;;723.00;683.05;;;;;;;11.15;65.22;101712.88;687750;28;23394;-67
2021/10/19 01:33:20;;;;;;;744.80;703.10;;;;;;;11.17;65.16;101716.28;687726;28;47540;-67
2021/10/19 01:33:41;;;;;;;759.80;716.75;;;;;;;11.17;65.40;101719.84;687327;28;45211;-67
2021/10/19 01:34:02;;;;;;;802.45;756.13;;;;;;;11.16;65.08;101720.84;688442;28;22402;-67
2021/10/19 01:34:23;;;;;;;801.05;754.67;;;;;;;11.15;65.25;101716.44;689340;28;1622;-67
2021/10/19 01:34:45;;;;;;;808.75;761.65;;;;;;;11.17;65.23;101719.84;688045;28;21695;-67
2021/10/19 01:35:09;;;;;;;824.70;777.00;;;;;;;11.19;65.36;101716.97;687295;28;46425;-67
2021/10/19 01:35:31;;;;;;;821.80;774.50;;;;;;;11.17;65.37;101710.88;686148;28;92287;-68
2021/10/19 01:35:52;;;;;;;855.92;806.38;;;;;;;11.17;65.28;101713.56;687244;28;44375;-67
2021/10/19 01:36:14;;;;;;;869.38;818.95;;;;;;;11.16;65.12;101712.72;688373;28;22417;-67
2021/10/19 01:36:35;;;;;;;912.10;859.05;;;;;;;11.16;65.35;101707.31;687253;28;46111;-67
2021/10/19 01:36:56;;;;;;;922.63;869.03;;;;;;;11.17;65.24;101708.16;688047;28;22390;-67